createdAt,value
2019-05-05T00:02:17.712Z,99207.13
2019-05-05T00:05:19.394Z,99208.80
2019-05-05T00:08:10.637Z,99218.27
2019-05-05T00:11:15.418Z,99223.59
2019-05-05T00:14:16.530Z,99222.45
2019-05-05T00:17:16.325Z,99226.14
2019-05-05T00:20:07.430Z,99238.06
2019-05-05T00:22:58.186Z,99234.41
2019-05-05T00:25:49.478Z,99234.83
2019-05-05T00:28:39.928Z,99232.35
2019-05-05T00:31:30.310Z,99233.49
2019-05-05T00:34:21.409Z,99235.64
2019-05-05T00:37:14.946Z,99240.74
2019-05-05T00:40:05.324Z,99236.48
2019-05-05T00:42:55.936Z,99241.82
2019-05-05T00:45:49.171Z,99251.81
2019-05-05T00:48:46.072Z,99260.41
2019-05-05T00:51:37.035Z,99267.64
2019-05-05T00:54:27.601Z,99267.38
2019-05-05T00:57:18.983Z,99265.72
2019-05-05T01:00:24.505Z,99268.98
2019-05-05T01:03:15.385Z,99270.45
2019-05-05T01:06:17.590Z,99273.55
2019-05-05T01:09:10.684Z,99280.69
2019-05-05T01:12:00.929Z,99284.05
2019-05-05T01:14:51.323Z,99281.45
2019-05-05T01:17:41.758Z,99287.17
2019-05-05T01:20:34.298Z,99294.01
2019-05-05T01:23:25.638Z,99304.39
2019-05-05T01:26:16.198Z,99309.89
2019-05-05T01:29:09.057Z,99324.53
2019-05-05T01:32:01.396Z,99325.83
2019-05-05T01:34:54.786Z,99326.77
2019-05-05T01:37:51.796Z,99331.69
2019-05-05T01:41:01.032Z,99332.26
2019-05-05T01:43:54.096Z,99333.68
2019-05-05T01:46:44.595Z,99334.25
2019-05-05T01:49:35.929Z,99335.38
2019-05-05T01:52:27.523Z,99334.27
2019-05-05T01:55:18.539Z,99341.88
2019-05-05T01:58:08.975Z,99339.32
2019-05-05T02:00:59.662Z,99345.37
2019-05-05T02:03:50.051Z,99342.27
2019-05-05T02:06:40.502Z,99339.00
2019-05-05T02:09:30.892Z,99345.19
2019-05-05T02:12:21.928Z,99349.58
2019-05-05T02:15:14.725Z,99353.42
2019-05-05T02:18:05.276Z,99352.31
2019-05-05T02:21:05.091Z,99352.92
2019-05-05T02:23:56.466Z,99354.84
2019-05-05T02:26:46.668Z,99351.51
2019-05-05T02:29:56.564Z,99347.50
2019-05-05T02:32:49.567Z,99355.85
2019-05-05T02:35:40.937Z,99354.56
2019-05-05T02:38:35.266Z,99358.61
2019-05-05T02:41:25.428Z,99367.58
2019-05-05T02:44:16.094Z,99373.38
2019-05-05T02:47:15.934Z,99375.63
2019-05-05T02:50:08.250Z,99384.83
2019-05-05T02:53:00.269Z,99383.91
2019-05-05T02:55:50.623Z,99382.35
2019-05-05T02:58:40.683Z,99386.23
2019-05-05T03:01:47.826Z,99391.25
2019-05-05T03:04:38.047Z,99396.63
2019-05-05T03:07:29.616Z,99407.59
2019-05-05T03:10:20.808Z,99409.62
2019-05-05T03:13:13.906Z,99414.00
2019-05-05T03:16:34.109Z,99421.31
2019-05-05T03:19:25.105Z,99417.65
2019-05-05T03:22:16.330Z,99421.13
2019-05-05T03:25:06.572Z,99421.33
2019-05-05T03:27:57.300Z,99425.44
2019-05-05T03:30:48.656Z,99426.62
2019-05-05T03:33:40.382Z,99429.87
2019-05-05T03:36:30.820Z,99428.41
2019-05-05T03:39:25.073Z,99430.55
2019-05-05T03:42:37.974Z,99442.81
2019-05-05T03:45:34.171Z,99439.64
2019-05-05T03:48:26.313Z,99438.19
2019-05-05T03:51:20.554Z,99445.97
2019-05-05T03:54:09.852Z,99449.57
2019-05-05T03:57:10.479Z,99451.25
2019-05-05T04:00:01.032Z,99454.08
2019-05-05T04:02:58.453Z,99455.62
2019-05-05T04:05:54.173Z,99457.05
2019-05-05T04:08:45.119Z,99457.03
2019-05-05T04:11:35.523Z,99455.38
2019-05-05T04:14:26.553Z,99456.97
2019-05-05T04:17:38.852Z,99458.06
2019-05-05T04:20:47.630Z,99465.20
2019-05-05T04:23:37.965Z,99468.28
2019-05-05T04:26:29.009Z,99457.33
2019-05-05T04:29:19.377Z,99462.22
2019-05-05T04:32:10.427Z,99461.55
2019-05-05T04:35:03.571Z,99461.70
2019-05-05T04:37:54.354Z,99465.50
2019-05-05T04:40:45.018Z,99466.69
2019-05-05T04:43:35.443Z,99470.62
2019-05-05T04:46:26.362Z,99473.24
2019-05-05T04:49:28.775Z,99477.72
2019-05-05T04:52:20.745Z,99479.78
2019-05-05T04:55:11.242Z,99481.41
2019-05-05T04:58:01.428Z,99481.31
2019-05-05T05:00:51.613Z,99487.90
2019-05-05T05:03:56.837Z,99487.25
2019-05-05T05:06:54.221Z,99486.65
2019-05-05T05:09:44.717Z,99483.06
2019-05-05T05:12:36.034Z,99478.93
2019-05-05T05:15:26.359Z,99481.12
2019-05-05T05:18:17.861Z,99480.61
2019-05-05T05:21:09.192Z,99479.75
2019-05-05T05:24:00.211Z,99483.63
2019-05-05T05:26:52.136Z,99483.51
2019-05-05T05:29:43.886Z,99481.11
2019-05-05T05:32:34.858Z,99480.07
2019-05-05T05:35:26.112Z,99485.03
2019-05-05T05:38:17.221Z,99485.01
2019-05-05T05:41:15.796Z,99485.78
2019-05-05T05:44:14.458Z,99483.98
2019-05-05T05:47:24.891Z,99485.70
2019-05-05T05:50:28.608Z,99493.66
2019-05-05T05:53:19.816Z,99496.44
2019-05-05T05:56:11.102Z,99496.24
2019-05-05T05:59:03.674Z,99499.77
2019-05-05T06:02:08.724Z,99501.30
2019-05-05T06:04:46.910Z,99507.36
2019-05-05T06:07:38.121Z,99510.54
2019-05-05T06:10:28.684Z,99510.77
2019-05-05T06:13:19.076Z,99516.09
2019-05-05T06:16:09.399Z,99518.20
2019-05-05T06:19:03.486Z,99514.72
2019-05-05T06:21:54.393Z,99514.81
2019-05-05T06:24:44.847Z,99520.66
2019-05-05T06:27:35.691Z,99520.83
2019-05-05T06:30:26.102Z,99520.64
2019-05-05T06:33:16.526Z,99522.73
2019-05-05T06:36:07.872Z,99528.63
2019-05-05T06:38:58.503Z,99528.03
2019-05-05T06:42:04.361Z,99520.92
2019-05-05T06:44:59.170Z,99524.54
2019-05-05T06:47:50.084Z,99520.48
2019-05-05T06:50:40.877Z,99520.73
2019-05-05T06:53:34.022Z,99516.64
2019-05-05T06:56:24.231Z,99514.95
2019-05-05T06:59:15.688Z,99517.62
2019-05-05T07:02:07.276Z,99514.47
2019-05-05T07:04:57.596Z,99517.68
2019-05-05T07:07:48.061Z,99521.63
2019-05-05T07:10:38.321Z,99525.61
2019-05-05T07:13:29.366Z,99525.36
2019-05-05T07:16:20.607Z,99526.23
2019-05-05T07:19:10.865Z,99537.11
2019-05-05T07:22:01.537Z,99533.68
2019-05-05T07:24:54.296Z,99528.44
2019-05-05T07:27:44.682Z,99528.50
2019-05-05T07:30:35.118Z,99530.00
2019-05-05T07:33:26.070Z,99537.32
2019-05-05T07:36:50.780Z,99540.06
2019-05-05T07:39:40.891Z,99542.81
2019-05-05T07:42:31.100Z,99545.11
2019-05-05T07:45:25.125Z,99545.79
2019-05-05T07:48:13.851Z,99551.83
2019-05-05T07:51:05.507Z,99556.18
2019-05-05T07:53:55.860Z,99554.09
2019-05-05T07:56:46.174Z,99546.88
2019-05-05T07:59:37.349Z,99548.64
2019-05-05T08:02:28.275Z,99548.19
2019-05-05T08:05:19.530Z,99545.84
2019-05-05T08:08:10.549Z,99543.48
2019-05-05T08:11:01.236Z,99541.20
2019-05-05T08:13:51.596Z,99543.85
2019-05-05T08:16:53.687Z,99535.39
2019-05-05T08:20:06.667Z,99535.70
2019-05-05T08:22:57.173Z,99533.28
2019-05-05T08:26:07.461Z,99540.72
2019-05-05T08:29:04.648Z,99537.09
2019-05-05T08:32:00.947Z,99537.29
2019-05-05T08:34:58.114Z,99542.94
2019-05-05T08:37:43.637Z,99541.11
2019-05-05T08:40:34.834Z,99543.44
2019-05-05T08:43:25.970Z,99548.38
2019-05-05T08:46:16.787Z,99547.28
2019-05-05T08:49:07.668Z,99553.75
2019-05-05T08:51:58.807Z,99552.27
2019-05-05T08:54:48.978Z,99552.06
2019-05-05T08:57:39.390Z,99554.55
2019-05-05T09:00:29.836Z,99568.27
2019-05-05T09:03:20.495Z,99570.13
2019-05-05T09:06:10.897Z,99568.28
2019-05-05T09:09:01.256Z,99568.65
2019-05-05T09:11:54.206Z,99574.85
2019-05-05T09:14:45.029Z,99570.42
2019-05-05T09:17:35.461Z,99570.59
2019-05-05T09:20:26.703Z,99567.18
2019-05-05T09:23:17.993Z,99572.30
2019-05-05T09:26:30.150Z,99575.66
2019-05-05T09:29:24.338Z,99570.56
2019-05-05T09:32:14.743Z,99575.35
2019-05-05T09:35:06.487Z,99571.31
2019-05-05T09:37:56.912Z,99574.95
2019-05-05T09:40:51.384Z,99564.47
2019-05-05T09:43:44.564Z,99558.45
2019-05-05T09:46:34.695Z,99558.70
2019-05-05T09:49:25.318Z,99564.83
2019-05-05T09:52:16.359Z,99568.16
2019-05-05T09:55:07.420Z,99572.85
2019-05-05T09:57:57.737Z,99578.52
2019-05-05T10:00:48.120Z,99582.16
2019-05-05T10:03:38.797Z,99581.09
2019-05-05T10:06:29.086Z,99583.89
2019-05-05T10:09:19.959Z,99580.97
2019-05-05T10:12:11.257Z,99582.41
2019-05-05T10:15:07.155Z,99591.94
2019-05-05T10:17:54.593Z,99589.45
2019-05-05T10:20:45.281Z,99591.91
2019-05-05T10:23:38.770Z,99588.86
2019-05-05T10:26:28.890Z,99585.19
2019-05-05T10:29:19.813Z,99594.30
2019-05-05T10:32:11.111Z,99588.70
2019-05-05T10:35:04.459Z,99588.55
2019-05-05T10:37:57.700Z,99589.83
2019-05-05T10:40:48.866Z,99584.38
2019-05-05T10:43:38.999Z,99579.86
2019-05-05T10:46:29.928Z,99578.86
2019-05-05T10:49:21.208Z,99582.85
2019-05-05T10:52:14.063Z,99578.09
2019-05-05T10:55:04.337Z,99569.78
2019-05-05T10:57:55.471Z,99568.67
2019-05-05T11:01:03.957Z,99566.69
2019-05-05T11:03:53.842Z,99567.81
2019-05-05T11:06:44.213Z,99571.92
2019-05-05T11:09:35.310Z,99572.19
2019-05-05T11:12:25.401Z,99576.24
2019-05-05T11:15:15.870Z,99574.23
2019-05-05T11:18:07.132Z,99571.42
2019-05-05T11:20:58.190Z,99575.70
2019-05-05T11:23:49.287Z,99575.77
2019-05-05T11:26:40.447Z,99581.10
2019-05-05T11:29:31.595Z,99580.88
2019-05-05T11:32:40.867Z,99585.76
2019-05-05T11:35:54.580Z,99584.60
2019-05-05T11:38:45.605Z,99581.25
2019-05-05T11:41:36.044Z,99585.41
2019-05-05T11:44:26.593Z,99584.34
2019-05-05T11:47:17.736Z,99582.48
2019-05-05T11:50:09.633Z,99581.45
2019-05-05T11:53:00.269Z,99580.88
2019-05-05T11:55:50.989Z,99581.84
2019-05-05T11:58:41.237Z,99583.00
2019-05-05T12:01:31.526Z,99580.06
2019-05-05T12:04:23.972Z,99576.08
2019-05-05T12:07:14.691Z,99578.47
2019-05-05T12:10:07.638Z,99578.35
2019-05-05T12:12:58.145Z,99581.83
2019-05-05T12:15:53.810Z,99579.66
2019-05-05T12:18:46.220Z,99579.08
2019-05-05T12:21:37.682Z,99577.10
2019-05-05T12:24:33.885Z,99578.48
2019-05-05T12:27:30.996Z,99575.98
2019-05-05T12:30:22.262Z,99582.05
2019-05-05T12:33:13.792Z,99578.15
2019-05-05T12:36:04.800Z,99575.59
2019-05-05T12:38:55.234Z,99574.11
2019-05-05T12:41:45.978Z,99576.56
2019-05-05T12:44:59.962Z,99578.00
2019-05-05T12:48:07.962Z,99578.59
2019-05-05T12:50:58.810Z,99583.50
2019-05-05T12:53:50.843Z,99578.30
2019-05-05T12:56:41.764Z,99574.83
2019-05-05T12:59:33.847Z,99567.67
2019-05-05T13:02:24.213Z,99571.19
2019-05-05T13:05:15.372Z,99577.16
2019-05-05T13:08:07.354Z,99578.60
2019-05-05T13:10:58.269Z,99577.22
2019-05-05T13:13:49.721Z,99585.17
2019-05-05T13:16:50.630Z,99586.26
2019-05-05T13:19:51.716Z,99585.73
2019-05-05T13:22:49.336Z,99583.44
2019-05-05T13:26:04.213Z,99582.75
2019-05-05T13:28:54.290Z,99586.78
2019-05-05T13:31:44.780Z,99581.34
2019-05-05T13:34:35.521Z,99581.03
2019-05-05T13:37:25.916Z,99585.62
2019-05-05T13:40:17.473Z,99586.23
2019-05-05T13:43:08.114Z,99591.73
2019-05-05T13:46:14.098Z,99590.57
2019-05-05T13:49:24.948Z,99594.30
2019-05-05T13:52:15.525Z,99588.34
2019-05-05T13:55:07.624Z,99595.64
2019-05-05T13:57:59.445Z,99589.72
2019-05-05T14:00:51.023Z,99590.84
2019-05-05T14:03:44.761Z,99587.49
2019-05-05T14:06:35.443Z,99589.87
2019-05-05T14:09:26.715Z,99586.47
2019-05-05T14:12:17.663Z,99577.47
2019-05-05T14:15:09.168Z,99574.05
2019-05-05T14:18:00.442Z,99572.24
2019-05-05T14:20:51.868Z,99571.98
2019-05-05T14:24:16.544Z,99571.17
2019-05-05T14:27:07.182Z,99569.45
2019-05-05T14:30:14.676Z,99567.81
2019-05-05T14:33:07.354Z,99566.58
2019-05-05T14:36:05.166Z,99560.08
2019-05-05T14:39:06.694Z,99561.84
2019-05-05T14:41:59.553Z,99563.06
2019-05-05T14:44:50.830Z,99563.86
2019-05-05T14:47:41.298Z,99572.02
2019-05-05T14:50:31.922Z,99566.15
2019-05-05T14:53:24.125Z,99568.88
2019-05-05T14:56:14.422Z,99572.06
2019-05-05T14:59:04.594Z,99567.07
2019-05-05T15:01:55.358Z,99565.30
2019-05-05T15:04:45.760Z,99562.33
2019-05-05T15:07:46.080Z,99556.52
2019-05-05T15:10:54.777Z,99555.39
2019-05-05T15:13:45.934Z,99561.20
2019-05-05T15:16:37.358Z,99554.34
2019-05-05T15:19:28.616Z,99558.70
2019-05-05T15:22:19.478Z,99557.11
2019-05-05T15:25:10.585Z,99553.59
2019-05-05T15:28:01.249Z,99557.05
2019-05-05T15:30:51.742Z,99557.25
2019-05-05T15:33:44.024Z,99556.30
2019-05-05T15:36:33.892Z,99559.03
2019-05-05T15:39:25.187Z,99550.02
2019-05-05T15:42:15.939Z,99559.59
2019-05-05T15:45:07.319Z,99555.07
2019-05-05T15:47:57.746Z,99560.23
2019-05-05T15:50:48.736Z,99560.24
2019-05-05T15:53:39.184Z,99563.98
2019-05-05T15:56:30.380Z,99558.37
2019-05-05T15:59:21.375Z,99559.07
2019-05-05T16:02:13.375Z,99558.69
2019-05-05T16:05:04.513Z,99558.15
2019-05-05T16:07:55.732Z,99557.05
2019-05-05T16:10:46.540Z,99553.09
2019-05-05T16:13:38.183Z,99560.07
2019-05-05T16:16:48.067Z,99558.86
2019-05-05T16:19:58.488Z,99560.30
2019-05-05T16:23:01.242Z,99562.38
2019-05-05T16:25:51.674Z,99559.97
2019-05-05T16:28:44.579Z,99564.61
2019-05-05T16:31:36.068Z,99568.28
2019-05-05T16:34:26.819Z,99565.52
2019-05-05T16:37:18.190Z,99563.87
2019-05-05T16:40:09.163Z,99557.52
2019-05-05T16:42:59.491Z,99560.09
2019-05-05T16:45:49.609Z,99559.12
2019-05-05T16:48:40.933Z,99558.75
2019-05-05T16:51:34.996Z,99559.07
2019-05-05T16:54:34.289Z,99562.06
2019-05-05T16:57:33.729Z,99561.21
2019-05-05T17:00:17.347Z,99564.56
2019-05-05T17:03:08.715Z,99565.11
2019-05-05T17:05:59.370Z,99565.41
2019-05-05T17:08:50.450Z,99564.24
2019-05-05T17:11:43.987Z,99561.63
2019-05-05T17:14:44.435Z,99566.37
2019-05-05T17:17:44.564Z,99567.39
2019-05-05T17:20:39.899Z,99569.37
2019-05-05T17:23:30.496Z,99573.35
2019-05-05T17:26:24.134Z,99582.94
2019-05-05T17:29:14.601Z,99581.63
2019-05-05T17:32:05.451Z,99582.25
2019-05-05T17:34:56.449Z,99583.58
2019-05-05T17:37:47.759Z,99582.94
2019-05-05T17:40:56.607Z,99580.33
2019-05-05T17:44:04.949Z,99584.47
2019-05-05T17:47:17.419Z,99590.31
2019-05-05T17:50:19.512Z,99583.98
2019-05-05T17:53:23.614Z,99586.61
2019-05-05T17:56:16.150Z,99589.59
2019-05-05T17:59:07.246Z,99589.63
2019-05-05T18:01:58.486Z,99591.81
2019-05-05T18:04:49.053Z,99595.73
2019-05-05T18:07:43.988Z,99595.94
2019-05-05T18:10:43.919Z,99599.34
2019-05-05T18:13:40.041Z,99602.31
2019-05-05T18:16:30.216Z,99603.41
2019-05-05T18:19:21.489Z,99605.91
2019-05-05T18:22:13.904Z,99607.56
2019-05-05T18:25:05.652Z,99611.02
2019-05-05T18:27:56.511Z,99609.59
2019-05-05T18:30:47.471Z,99613.20
2019-05-05T18:33:38.551Z,99612.27
2019-05-05T18:36:28.932Z,99615.69
2019-05-05T18:39:19.316Z,99616.27
2019-05-05T18:42:16.127Z,99618.69
2019-05-05T18:45:10.760Z,99625.01
2019-05-05T18:48:02.142Z,99628.06
2019-05-05T18:50:54.172Z,99634.99
2019-05-05T18:53:44.366Z,99640.61
2019-05-05T18:56:35.759Z,99649.05
2019-05-05T18:59:26.109Z,99648.48
2019-05-05T19:02:44.641Z,99654.21
2019-05-05T19:05:53.612Z,99654.06
2019-05-05T19:08:54.222Z,99656.59
2019-05-05T19:11:40.512Z,99657.72
2019-05-05T19:14:31.165Z,99659.89
2019-05-05T19:17:23.456Z,99665.91
2019-05-05T19:20:20.486Z,99659.94
2019-05-05T19:23:10.916Z,99665.28
2019-05-05T19:26:01.350Z,99663.09
2019-05-05T19:28:54.780Z,99667.77
2019-05-05T19:31:45.941Z,99668.59
2019-05-05T19:34:37.278Z,99667.50
2019-05-05T19:37:28.584Z,99679.97
2019-05-05T19:40:19.662Z,99676.23
2019-05-05T19:43:10.607Z,99675.94
2019-05-05T19:46:02.072Z,99679.48
2019-05-05T19:48:55.374Z,99682.48
2019-05-05T19:51:45.999Z,99680.22
2019-05-05T19:54:38.039Z,99685.20
2019-05-05T19:57:28.330Z,99681.11
2019-05-05T20:00:19.860Z,99681.66
2019-05-05T20:03:10.849Z,99681.10
2019-05-05T20:06:02.114Z,99680.72
2019-05-05T20:08:53.670Z,99683.37
2019-05-05T20:11:44.796Z,99685.81
2019-05-05T20:14:35.448Z,99677.99
2019-05-05T20:17:37.057Z,99674.69
2019-05-05T20:20:28.172Z,99679.13
2019-05-05T20:23:18.517Z,99681.08
2019-05-05T20:26:08.938Z,99678.48
2019-05-05T20:29:11.521Z,99685.32
2019-05-05T20:31:52.283Z,99681.11
2019-05-05T20:35:03.928Z,99689.73
2019-05-05T20:38:01.777Z,99681.50
2019-05-05T20:41:10.642Z,99685.85
2019-05-05T20:44:01.052Z,99685.09
2019-05-05T20:46:53.537Z,99683.41
2019-05-05T20:49:44.518Z,99684.42
2019-05-05T20:52:34.903Z,99682.70
2019-05-05T20:55:26.013Z,99681.00
2019-05-05T20:58:17.235Z,99678.45
2019-05-05T21:01:07.905Z,99683.82
2019-05-05T21:03:58.265Z,99686.27
2019-05-05T21:06:48.408Z,99682.92
2019-05-05T21:09:39.678Z,99685.68
2019-05-05T21:12:41.732Z,99682.50
2019-05-05T21:15:24.640Z,99685.59
2019-05-05T21:18:16.056Z,99681.93
2019-05-05T21:21:08.215Z,99678.73
2019-05-05T21:24:00.467Z,99676.17
2019-05-05T21:26:55.566Z,99673.74
2019-05-05T21:29:45.969Z,99667.20
2019-05-05T21:32:36.483Z,99675.20
2019-05-05T21:35:27.648Z,99673.91
2019-05-05T21:38:18.400Z,99674.77
2019-05-05T21:41:09.554Z,99675.55
2019-05-05T21:44:00.621Z,99676.38
2019-05-05T21:46:51.016Z,99677.92
2019-05-05T21:49:41.979Z,99673.70
2019-05-05T21:52:39.114Z,99671.94
2019-05-05T21:55:55.008Z,99668.16
2019-05-05T21:58:46.289Z,99671.31
2019-05-05T22:01:40.185Z,99672.61
2019-05-05T22:04:30.092Z,99667.70
2019-05-05T22:07:21.178Z,99670.34
2019-05-05T22:10:13.477Z,99665.86
2019-05-05T22:13:04.884Z,99669.30
2019-05-05T22:15:56.424Z,99668.49
2019-05-05T22:18:47.619Z,99663.91
2019-05-05T22:21:49.299Z,99663.05
2019-05-05T22:24:40.519Z,99662.31
2019-05-05T22:27:30.622Z,99665.44
2019-05-05T22:30:23.582Z,99662.69
2019-05-05T22:33:13.790Z,99658.86
2019-05-05T22:36:07.103Z,99660.30
2019-05-05T22:38:57.781Z,99662.86
2019-05-05T22:41:48.124Z,99669.98
2019-05-05T22:44:38.744Z,99668.76
2019-05-05T22:47:29.080Z,99668.42
2019-05-05T22:50:20.242Z,99670.37
2019-05-05T22:53:14.021Z,99669.84
2019-05-05T22:56:04.095Z,99670.27
2019-05-05T22:58:55.423Z,99674.13
2019-05-05T23:01:46.502Z,99675.16
2019-05-05T23:04:54.576Z,99670.20
2019-05-05T23:07:46.800Z,99671.68
2019-05-05T23:10:38.303Z,99671.08
2019-05-05T23:13:29.001Z,99667.51
2019-05-05T23:16:28.962Z,99667.89
2019-05-05T23:19:19.786Z,99668.20
2019-05-05T23:22:29.003Z,99664.94
2019-05-05T23:25:25.956Z,99669.58
2019-05-05T23:28:16.840Z,99672.26
2019-05-05T23:31:08.002Z,99671.64
2019-05-05T23:33:59.449Z,99667.95
2019-05-05T23:36:50.654Z,99671.70
2019-05-05T23:39:41.944Z,99667.85
2019-05-05T23:42:33.666Z,99661.75
2019-05-05T23:45:25.234Z,99663.33
2019-05-05T23:48:17.086Z,99663.80
2019-05-05T23:51:08.183Z,99663.42
2019-05-05T23:53:58.232Z,99664.48
2019-05-05T23:56:49.473Z,99667.62
2019-05-05T23:59:40.131Z,99666.45
